sensor_id;sensor_type;location;lat;lon;timestamp;temperature;humidity
34833;DHT22;55941;50.800;4.342;2023-05-14T00:02:21;13.90;99.90
34833;DHT22;55941;50.800;4.342;2023-05-14T00:04:47;14.00;99.90
34833;DHT22;55941;50.800;4.342;2023-05-14T00:07:13;13.90;99.90
34833;DHT22;55941;50.800;4.342;2023-05-14T00:09:39;14.00;99.90
34833;DHT22;55941;50.800;4.342;2023-05-14T00:12:06;13.90;99.90
34833;DHT22;55941;50.800;4.342;2023-05-14T00:14:32;13.80;99.90
34833;DHT22;55941;50.800;4.342;2023-05-14T00:16:58;13.60;99.90
34833;DHT22;55941;50.800;4.342;2023-05-14T00:19:24;13.60;99.90
34833;DHT22;55941;50.800;4.342;2023-05-14T00:21:50;13.60;99.90
34833;DHT22;55941;50.800;4.342;2023-05-14T00:24:17;13.60;99.90
34833;DHT22;55941;50.800;4.342;2023-05-14T00:26:43;13.80;99.90
34833;DHT22;55941;50.800;4.342;2023-05-14T00:29:09;13.80;99.90
34833;DHT22;55941;50.800;4.342;2023-05-14T00:31:35;13.60;99.90
34833;DHT22;55941;50.800;4.342;2023-05-14T00:34:01;13.40;99.90
34833;DHT22;55941;50.800;4.342;2023-05-14T00:36:27;13.30;99.90
34833;DHT22;55941;50.800;4.342;2023-05-14T00:38:53;13.40;99.90
34833;DHT22;55941;50.800;4.342;2023-05-14T00:41:19;13.40;99.90
34833;DHT22;55941;50.800;4.342;2023-05-14T00:43:46;13.50;99.90
34833;DHT22;55941;50.800;4.342;2023-05-14T00:46:12;13.50;99.90
34833;DHT22;55941;50.800;4.342;2023-05-14T00:48:39;13.60;99.90
34833;DHT22;55941;50.800;4.342;2023-05-14T00:51:05;13.50;99.90
34833;DHT22;55941;50.800;4.342;2023-05-14T00:53:32;13.50;99.90
34833;DHT22;55941;50.800;4.342;2023-05-14T00:55:58;13.50;99.90
34833;DHT22;55941;50.800;4.342;2023-05-14T00:58:24;13.40;99.90
34833;DHT22;55941;50.800;4.342;2023-05-14T01:00:50;13.50;99.90
34833;DHT22;55941;50.800;4.342;2023-05-14T01:03:17;13.50;99.90
34833;DHT22;55941;50.800;4.342;2023-05-14T01:06:14;13.30;99.90
34833;DHT22;55941;50.800;4.342;2023-05-14T01:11:58;13.40;99.90
34833;DHT22;55941;50.800;4.342;2023-05-14T01:17:15;13.60;99.90
34833;DHT22;55941;50.800;4.342;2023-05-14T01:19:46;13.60;99.90
34833;DHT22;55941;50.800;4.342;2023-05-14T01:22:13;13.60;99.90
34833;DHT22;55941;50.800;4.342;2023-05-14T01:24:39;13.60;99.90
34833;DHT22;55941;50.800;4.342;2023-05-14T01:27:33;13.40;99.90
34833;DHT22;55941;50.800;4.342;2023-05-14T01:30:13;13.40;99.90
34833;DHT22;55941;50.800;4.342;2023-05-14T01:32:45;13.30;99.90
34833;DHT22;55941;50.800;4.342;2023-05-14T01:35:13;13.40;99.90
34833;DHT22;55941;50.800;4.342;2023-05-14T01:37:40;13.50;99.90
34833;DHT22;55941;50.800;4.342;2023-05-14T01:40:08;13.40;99.90
34833;DHT22;55941;50.800;4.342;2023-05-14T01:42:36;13.30;99.90
34833;DHT22;55941;50.800;4.342;2023-05-14T01:45:02;13.20;99.90
34833;DHT22;55941;50.800;4.342;2023-05-14T01:47:28;13.30;99.90
34833;DHT22;55941;50.800;4.342;2023-05-14T01:49:54;13.40;99.90
34833;DHT22;55941;50.800;4.342;2023-05-14T01:52:20;13.30;99.90
34833;DHT22;55941;50.800;4.342;2023-05-14T01:54:48;13.40;99.90
34833;DHT22;55941;50.800;4.342;2023-05-14T01:57:14;13.50;99.90
34833;DHT22;55941;50.800;4.342;2023-05-14T01:59:40;13.50;99.90
34833;DHT22;55941;50.800;4.342;2023-05-14T02:02:06;13.30;99.90
34833;DHT22;55941;50.800;4.342;2023-05-14T02:04:32;13.50;99.90
34833;DHT22;55941;50.800;4.342;2023-05-14T02:06:58;13.30;99.90
34833;DHT22;55941;50.800;4.342;2023-05-14T02:09:24;13.20;99.90
34833;DHT22;55941;50.800;4.342;2023-05-14T02:11:50;13.20;99.90
34833;DHT22;55941;50.800;4.342;2023-05-14T02:14:16;13.10;99.90
34833;DHT22;55941;50.800;4.342;2023-05-14T02:16:42;13.30;99.90
34833;DHT22;55941;50.800;4.342;2023-05-14T02:19:08;13.30;99.90
34833;DHT22;55941;50.800;4.342;2023-05-14T02:21:34;13.30;99.90
34833;DHT22;55941;50.800;4.342;2023-05-14T02:24:00;13.30;99.90
34833;DHT22;55941;50.800;4.342;2023-05-14T02:26:26;13.30;99.90
34833;DHT22;55941;50.800;4.342;2023-05-14T02:28:52;13.30;99.90
34833;DHT22;55941;50.800;4.342;2023-05-14T02:31:18;13.40;99.90
34833;DHT22;55941;50.800;4.342;2023-05-14T02:33:45;13.50;99.90
34833;DHT22;55941;50.800;4.342;2023-05-14T02:36:11;13.50;99.90
34833;DHT22;55941;50.800;4.342;2023-05-14T02:38:38;13.60;99.90
34833;DHT22;55941;50.800;4.342;2023-05-14T02:41:04;13.40;99.90
34833;DHT22;55941;50.800;4.342;2023-05-14T02:43:30;13.30;99.90
34833;DHT22;55941;50.800;4.342;2023-05-14T02:45:56;13.30;99.90
34833;DHT22;55941;50.800;4.342;2023-05-14T02:48:21;13.30;99.90
34833;DHT22;55941;50.800;4.342;2023-05-14T02:50:49;13.50;99.90
34833;DHT22;55941;50.800;4.342;2023-05-14T02:53:16;13.40;99.90
34833;DHT22;55941;50.800;4.342;2023-05-14T02:55:42;13.50;99.90
34833;DHT22;55941;50.800;4.342;2023-05-14T02:58:08;13.30;99.90
34833;DHT22;55941;50.800;4.342;2023-05-14T03:00:35;13.50;99.90
34833;DHT22;55941;50.800;4.342;2023-05-14T03:03:01;13.60;99.90
34833;DHT22;55941;50.800;4.342;2023-05-14T03:05:27;13.60;99.90
34833;DHT22;55941;50.800;4.342;2023-05-14T03:07:53;13.60;99.90
34833;DHT22;55941;50.800;4.342;2023-05-14T03:10:19;13.50;99.90
34833;DHT22;55941;50.800;4.342;2023-05-14T03:12:45;13.50;99.90
34833;DHT22;55941;50.800;4.342;2023-05-14T03:15:12;13.50;99.90
34833;DHT22;55941;50.800;4.342;2023-05-14T03:17:37;13.40;99.90
34833;DHT22;55941;50.800;4.342;2023-05-14T03:20:03;13.50;99.90
34833;DHT22;55941;50.800;4.342;2023-05-14T03:22:30;13.50;99.90
34833;DHT22;55941;50.800;4.342;2023-05-14T03:24:55;13.50;99.90
34833;DHT22;55941;50.800;4.342;2023-05-14T03:27:21;13.50;99.90
34833;DHT22;55941;50.800;4.342;2023-05-14T03:29:48;13.50;99.90
34833;DHT22;55941;50.800;4.342;2023-05-14T03:32:14;13.80;99.90
34833;DHT22;55941;50.800;4.342;2023-05-14T03:34:40;13.90;99.90
34833;DHT22;55941;50.800;4.342;2023-05-14T03:37:06;13.80;99.90
34833;DHT22;55941;50.800;4.342;2023-05-14T03:39:32;13.60;99.90
34833;DHT22;55941;50.800;4.342;2023-05-14T03:41:58;13.70;99.90
34833;DHT22;55941;50.800;4.342;2023-05-14T03:44:24;13.60;99.90
34833;DHT22;55941;50.800;4.342;2023-05-14T03:46:50;13.60;99.90
34833;DHT22;55941;50.800;4.342;2023-05-14T03:49:15;13.60;99.90
34833;DHT22;55941;50.800;4.342;2023-05-14T03:51:41;13.60;99.90
34833;DHT22;55941;50.800;4.342;2023-05-14T03:54:07;13.50;99.90
34833;DHT22;55941;50.800;4.342;2023-05-14T03:56:33;13.60;99.90
34833;DHT22;55941;50.800;4.342;2023-05-14T03:58:59;13.60;99.90
34833;DHT22;55941;50.800;4.342;2023-05-14T04:01:25;13.60;99.90
34833;DHT22;55941;50.800;4.342;2023-05-14T04:03:50;13.70;99.90
34833;DHT22;55941;50.800;4.342;2023-05-14T04:06:16;13.70;99.90
34833;DHT22;55941;50.800;4.342;2023-05-14T04:08:42;13.70;99.90
34833;DHT22;55941;50.800;4.342;2023-05-14T04:11:08;13.70;99.90
34833;DHT22;55941;50.800;4.342;2023-05-14T04:13:34;13.70;99.90
34833;DHT22;55941;50.800;4.342;2023-05-14T04:16:00;13.60;99.90
34833;DHT22;55941;50.800;4.342;2023-05-14T04:18:26;13.60;99.90
34833;DHT22;55941;50.800;4.342;2023-05-14T04:20:52;13.40;99.90
34833;DHT22;55941;50.800;4.342;2023-05-14T04:23:18;13.30;99.90
34833;DHT22;55941;50.800;4.342;2023-05-14T04:25:44;13.40;99.90
34833;DHT22;55941;50.800;4.342;2023-05-14T04:28:10;13.50;99.90
34833;DHT22;55941;50.800;4.342;2023-05-14T04:30:36;13.50;99.90
34833;DHT22;55941;50.800;4.342;2023-05-14T04:33:02;13.50;99.90
34833;DHT22;55941;50.800;4.342;2023-05-14T04:35:28;13.50;99.90
34833;DHT22;55941;50.800;4.342;2023-05-14T04:37:54;13.60;99.90
34833;DHT22;55941;50.800;4.342;2023-05-14T04:40:20;13.70;99.90
34833;DHT22;55941;50.800;4.342;2023-05-14T04:42:47;13.70;99.90
34833;DHT22;55941;50.800;4.342;2023-05-14T04:45:12;13.70;99.90
34833;DHT22;55941;50.800;4.342;2023-05-14T04:47:39;13.70;99.90
34833;DHT22;55941;50.800;4.342;2023-05-14T04:50:05;13.70;99.90
34833;DHT22;55941;50.800;4.342;2023-05-14T04:52:32;13.70;99.90
34833;DHT22;55941;50.800;4.342;2023-05-14T04:54:58;13.80;99.90
34833;DHT22;55941;50.800;4.342;2023-05-14T04:57:24;13.70;99.90
34833;DHT22;55941;50.800;4.342;2023-05-14T04:59:50;13.70;99.90
34833;DHT22;55941;50.800;4.342;2023-05-14T05:02:16;13.70;99.90
34833;DHT22;55941;50.800;4.342;2023-05-14T05:04:42;13.70;99.90
34833;DHT22;55941;50.800;4.342;2023-05-14T05:07:08;13.60;99.90
34833;DHT22;55941;50.800;4.342;2023-05-14T05:09:33;13.60;99.90
34833;DHT22;55941;50.800;4.342;2023-05-14T05:11:59;13.70;99.90
34833;DHT22;55941;50.800;4.342;2023-05-14T05:14:26;13.80;99.90
34833;DHT22;55941;50.800;4.342;2023-05-14T05:16:52;13.70;99.90
34833;DHT22;55941;50.800;4.342;2023-05-14T05:19:21;13.60;99.90
34833;DHT22;55941;50.800;4.342;2023-05-14T05:21:47;13.60;99.90
34833;DHT22;55941;50.800;4.342;2023-05-14T05:24:13;13.70;99.90
34833;DHT22;55941;50.800;4.342;2023-05-14T05:26:39;13.70;99.90
34833;DHT22;55941;50.800;4.342;2023-05-14T05:29:06;13.80;99.90
34833;DHT22;55941;50.800;4.342;2023-05-14T05:31:32;13.90;99.90
34833;DHT22;55941;50.800;4.342;2023-05-14T05:33:59;14.00;99.90
34833;DHT22;55941;50.800;4.342;2023-05-14T05:36:25;13.90;99.90
34833;DHT22;55941;50.800;4.342;2023-05-14T05:38:52;13.90;99.90
34833;DHT22;55941;50.800;4.342;2023-05-14T05:41:18;14.00;99.90
34833;DHT22;55941;50.800;4.342;2023-05-14T05:43:45;13.80;99.90
34833;DHT22;55941;50.800;4.342;2023-05-14T05:46:11;13.90;99.90
34833;DHT22;55941;50.800;4.342;2023-05-14T05:48:36;13.80;99.90
34833;DHT22;55941;50.800;4.342;2023-05-14T05:51:02;13.80;99.90
34833;DHT22;55941;50.800;4.342;2023-05-14T05:53:28;13.70;99.90
34833;DHT22;55941;50.800;4.342;2023-05-14T05:55:54;13.60;99.90
34833;DHT22;55941;50.800;4.342;2023-05-14T05:58:20;13.60;99.90
34833;DHT22;55941;50.800;4.342;2023-05-14T06:00:46;13.40;99.90
34833;DHT22;55941;50.800;4.342;2023-05-14T06:03:12;13.60;99.90
34833;DHT22;55941;50.800;4.342;2023-05-14T06:05:38;13.60;99.90
34833;DHT22;55941;50.800;4.342;2023-05-14T06:08:04;13.70;99.90
34833;DHT22;55941;50.800;4.342;2023-05-14T06:10:30;13.80;99.90
34833;DHT22;55941;50.800;4.342;2023-05-14T06:12:56;13.70;99.90
34833;DHT22;55941;50.800;4.342;2023-05-14T06:15:22;13.70;99.90
34833;DHT22;55941;50.800;4.342;2023-05-14T06:17:49;13.80;99.90
34833;DHT22;55941;50.800;4.342;2023-05-14T06:20:15;13.90;99.90
34833;DHT22;55941;50.800;4.342;2023-05-14T06:22:41;13.90;99.90
34833;DHT22;55941;50.800;4.342;2023-05-14T06:25:07;13.90;99.90
34833;DHT22;55941;50.800;4.342;2023-05-14T06:27:33;13.80;99.90
34833;DHT22;55941;50.800;4.342;2023-05-14T06:29:59;13.70;99.90
34833;DHT22;55941;50.800;4.342;2023-05-14T06:32:25;13.60;99.90
34833;DHT22;55941;50.800;4.342;2023-05-14T06:34:52;13.60;99.90
34833;DHT22;55941;50.800;4.342;2023-05-14T06:37:18;13.60;99.90
34833;DHT22;55941;50.800;4.342;2023-05-14T06:39:45;13.50;99.90
34833;DHT22;55941;50.800;4.342;2023-05-14T06:42:17;13.50;99.90
34833;DHT22;55941;50.800;4.342;2023-05-14T06:44:43;13.60;99.90
34833;DHT22;55941;50.800;4.342;2023-05-14T06:47:11;13.60;99.90
34833;DHT22;55941;50.800;4.342;2023-05-14T06:49:37;13.70;99.90
34833;DHT22;55941;50.800;4.342;2023-05-14T06:52:03;13.70;99.90
34833;DHT22;55941;50.800;4.342;2023-05-14T06:54:29;13.80;99.90
34833;DHT22;55941;50.800;4.342;2023-05-14T06:56:55;13.70;99.90
34833;DHT22;55941;50.800;4.342;2023-05-14T06:59:22;13.60;99.90
34833;DHT22;55941;50.800;4.342;2023-05-14T07:01:48;13.70;99.90
34833;DHT22;55941;50.800;4.342;2023-05-14T07:04:14;13.70;99.90
34833;DHT22;55941;50.800;4.342;2023-05-14T07:06:40;13.70;99.90
34833;DHT22;55941;50.800;4.342;2023-05-14T07:09:05;13.60;99.90
34833;DHT22;55941;50.800;4.342;2023-05-14T07:11:32;13.70;99.90
34833;DHT22;55941;50.800;4.342;2023-05-14T07:13:59;13.70;99.90
34833;DHT22;55941;50.800;4.342;2023-05-14T07:16:25;13.70;99.90
34833;DHT22;55941;50.800;4.342;2023-05-14T07:18:51;13.80;99.90
34833;DHT22;55941;50.800;4.342;2023-05-14T07:21:17;13.80;99.90
34833;DHT22;55941;50.800;4.342;2023-05-14T07:23:43;13.80;99.90
34833;DHT22;55941;50.800;4.342;2023-05-14T07:26:09;13.80;99.90
34833;DHT22;55941;50.800;4.342;2023-05-14T07:28:38;13.80;99.90
34833;DHT22;55941;50.800;4.342;2023-05-14T07:31:04;13.90;99.90
34833;DHT22;55941;50.800;4.342;2023-05-14T07:33:34;14.00;99.90
34833;DHT22;55941;50.800;4.342;2023-05-14T07:36:01;14.20;99.90
34833;DHT22;55941;50.800;4.342;2023-05-14T07:38:27;14.30;99.90
34833;DHT22;55941;50.800;4.342;2023-05-14T07:40:53;14.40;99.90
34833;DHT22;55941;50.800;4.342;2023-05-14T07:43:19;14.40;99.90
34833;DHT22;55941;50.800;4.342;2023-05-14T07:45:45;14.50;99.90
34833;DHT22;55941;50.800;4.342;2023-05-14T07:48:11;14.60;99.90
34833;DHT22;55941;50.800;4.342;2023-05-14T07:50:37;14.50;99.90
34833;DHT22;55941;50.800;4.342;2023-05-14T07:53:03;14.30;99.90
34833;DHT22;55941;50.800;4.342;2023-05-14T07:55:29;14.40;99.90
34833;DHT22;55941;50.800;4.342;2023-05-14T07:57:57;14.50;99.90
34833;DHT22;55941;50.800;4.342;2023-05-14T08:00:22;14.70;99.90
34833;DHT22;55941;50.800;4.342;2023-05-14T08:02:48;14.70;99.90
34833;DHT22;55941;50.800;4.342;2023-05-14T08:05:16;14.80;99.90
34833;DHT22;55941;50.800;4.342;2023-05-14T08:07:43;14.70;99.90
34833;DHT22;55941;50.800;4.342;2023-05-14T08:10:09;14.80;99.90
34833;DHT22;55941;50.800;4.342;2023-05-14T08:12:35;14.90;99.90
34833;DHT22;55941;50.800;4.342;2023-05-14T08:15:01;14.90;99.90
34833;DHT22;55941;50.800;4.342;2023-05-14T08:17:27;14.90;99.90
34833;DHT22;55941;50.800;4.342;2023-05-14T08:19:53;14.90;99.90
34833;DHT22;55941;50.800;4.342;2023-05-14T08:22:19;14.70;99.90
34833;DHT22;55941;50.800;4.342;2023-05-14T08:24:46;14.70;99.90
34833;DHT22;55941;50.800;4.342;2023-05-14T08:27:12;14.80;99.90
34833;DHT22;55941;50.800;4.342;2023-05-14T08:29:38;14.70;99.90
34833;DHT22;55941;50.800;4.342;2023-05-14T08:32:05;14.60;99.90
34833;DHT22;55941;50.800;4.342;2023-05-14T08:34:34;14.60;99.90
34833;DHT22;55941;50.800;4.342;2023-05-14T08:37:00;14.60;99.90
34833;DHT22;55941;50.800;4.342;2023-05-14T08:39:27;14.60;99.90
34833;DHT22;55941;50.800;4.342;2023-05-14T08:41:53;14.80;99.90
34833;DHT22;55941;50.800;4.342;2023-05-14T08:44:44;15.00;99.90
34833;DHT22;55941;50.800;4.342;2023-05-14T08:47:14;15.30;99.90
34833;DHT22;55941;50.800;4.342;2023-05-14T08:49:41;15.60;99.90
34833;DHT22;55941;50.800;4.342;2023-05-14T08:52:10;15.60;99.90
34833;DHT22;55941;50.800;4.342;2023-05-14T08:54:37;15.80;99.90
34833;DHT22;55941;50.800;4.342;2023-05-14T08:57:03;15.70;99.90
34833;DHT22;55941;50.800;4.342;2023-05-14T08:59:31;15.90;99.90
34833;DHT22;55941;50.800;4.342;2023-05-14T09:02:00;15.80;99.90
34833;DHT22;55941;50.800;4.342;2023-05-14T09:04:27;15.60;99.90
34833;DHT22;55941;50.800;4.342;2023-05-14T09:06:54;15.50;99.90
34833;DHT22;55941;50.800;4.342;2023-05-14T09:09:21;15.60;99.90
34833;DHT22;55941;50.800;4.342;2023-05-14T09:11:50;15.80;99.90
34833;DHT22;55941;50.800;4.342;2023-05-14T09:14:17;16.00;99.90
34833;DHT22;55941;50.800;4.342;2023-05-14T09:16:47;16.10;99.90
34833;DHT22;55941;50.800;4.342;2023-05-14T09:19:14;16.30;99.90
34833;DHT22;55941;50.800;4.342;2023-05-14T09:21:41;16.50;99.90
34833;DHT22;55941;50.800;4.342;2023-05-14T09:24:07;16.70;99.90
34833;DHT22;55941;50.800;4.342;2023-05-14T09:26:34;16.80;99.90
34833;DHT22;55941;50.800;4.342;2023-05-14T09:29:00;16.90;99.90
34833;DHT22;55941;50.800;4.342;2023-05-14T09:31:31;17.00;99.90
34833;DHT22;55941;50.800;4.342;2023-05-14T09:33:58;17.10;99.90
34833;DHT22;55941;50.800;4.342;2023-05-14T09:36:25;17.10;99.90
34833;DHT22;55941;50.800;4.342;2023-05-14T09:38:56;16.90;99.90
34833;DHT22;55941;50.800;4.342;2023-05-14T09:41:22;16.90;99.90
34833;DHT22;55941;50.800;4.342;2023-05-14T09:43:52;16.90;99.90
34833;DHT22;55941;50.800;4.342;2023-05-14T09:46:18;17.10;99.90
34833;DHT22;55941;50.800;4.342;2023-05-14T09:48:45;17.30;99.90
34833;DHT22;55941;50.800;4.342;2023-05-14T09:51:12;17.50;99.90
34833;DHT22;55941;50.800;4.342;2023-05-14T09:53:38;17.70;99.90
34833;DHT22;55941;50.800;4.342;2023-05-14T09:56:06;17.60;99.90
34833;DHT22;55941;50.800;4.342;2023-05-14T09:58:32;17.80;99.90
34833;DHT22;55941;50.800;4.342;2023-05-14T10:00:59;17.80;99.90
34833;DHT22;55941;50.800;4.342;2023-05-14T10:03:28;17.90;99.90
34833;DHT22;55941;50.800;4.342;2023-05-14T10:05:57;17.60;99.90
34833;DHT22;55941;50.800;4.342;2023-05-14T10:08:29;17.40;99.90
34833;DHT22;55941;50.800;4.342;2023-05-14T10:10:58;17.60;99.90
34833;DHT22;55941;50.800;4.342;2023-05-14T10:13:29;17.60;99.90
34833;DHT22;55941;50.800;4.342;2023-05-14T10:16:04;17.70;99.90
34833;DHT22;55941;50.800;4.342;2023-05-14T10:18:38;17.60;99.90
34833;DHT22;55941;50.800;4.342;2023-05-14T10:21:06;17.70;99.90
34833;DHT22;55941;50.800;4.342;2023-05-14T10:23:33;17.70;99.90
34833;DHT22;55941;50.800;4.342;2023-05-14T10:26:02;17.80;99.90
34833;DHT22;55941;50.800;4.342;2023-05-14T10:28:29;17.80;99.90
34833;DHT22;55941;50.800;4.342;2023-05-14T10:30:56;17.80;99.90
34833;DHT22;55941;50.800;4.342;2023-05-14T10:33:22;17.80;99.90
34833;DHT22;55941;50.800;4.342;2023-05-14T10:38:27;17.50;99.90
34833;DHT22;55941;50.800;4.342;2023-05-14T10:41:17;17.60;99.90
34833;DHT22;55941;50.800;4.342;2023-05-14T10:43:45;17.60;99.90
34833;DHT22;55941;50.800;4.342;2023-05-14T10:46:12;17.80;99.90
34833;DHT22;55941;50.800;4.342;2023-05-14T10:48:41;17.70;99.90
34833;DHT22;55941;50.800;4.342;2023-05-14T10:51:09;17.70;99.90
34833;DHT22;55941;50.800;4.342;2023-05-14T10:53:39;17.70;99.90
34833;DHT22;55941;50.800;4.342;2023-05-14T10:56:10;18.10;99.90
34833;DHT22;55941;50.800;4.342;2023-05-14T10:58:40;18.60;99.90
34833;DHT22;55941;50.800;4.342;2023-05-14T11:01:08;19.00;99.90
34833;DHT22;55941;50.800;4.342;2023-05-14T11:06:06;19.30;99.90
34833;DHT22;55941;50.800;4.342;2023-05-14T11:08:36;19.00;99.90
34833;DHT22;55941;50.800;4.342;2023-05-14T11:11:02;19.10;99.90
34833;DHT22;55941;50.800;4.342;2023-05-14T11:13:29;19.40;99.90
34833;DHT22;55941;50.800;4.342;2023-05-14T11:15:55;19.60;99.90
34833;DHT22;55941;50.800;4.342;2023-05-14T11:18:26;20.00;99.90
34833;DHT22;55941;50.800;4.342;2023-05-14T11:20:56;20.40;99.90
34833;DHT22;55941;50.800;4.342;2023-05-14T11:23:23;20.60;99.90
34833;DHT22;55941;50.800;4.342;2023-05-14T11:25:54;20.70;99.90
34833;DHT22;55941;50.800;4.342;2023-05-14T11:28:25;20.70;99.90
34833;DHT22;55941;50.800;4.342;2023-05-14T11:30:52;20.50;99.90
34833;DHT22;55941;50.800;4.342;2023-05-14T11:33:19;20.80;99.90
34833;DHT22;55941;50.800;4.342;2023-05-14T11:35:45;21.10;99.90
34833;DHT22;55941;50.800;4.342;2023-05-14T11:38:16;21.30;99.90
34833;DHT22;55941;50.800;4.342;2023-05-14T11:40:53;21.40;99.90
34833;DHT22;55941;50.800;4.342;2023-05-14T11:43:19;21.40;99.90
34833;DHT22;55941;50.800;4.342;2023-05-14T11:45:54;21.60;99.90
34833;DHT22;55941;50.800;4.342;2023-05-14T11:48:21;21.50;99.90
34833;DHT22;55941;50.800;4.342;2023-05-14T11:50:48;21.50;99.90
34833;DHT22;55941;50.800;4.342;2023-05-14T11:53:28;21.90;99.90
34833;DHT22;55941;50.800;4.342;2023-05-14T11:55:55;22.20;99.90
34833;DHT22;55941;50.800;4.342;2023-05-14T11:58:24;22.40;99.90
34833;DHT22;55941;50.800;4.342;2023-05-14T12:00:52;22.60;99.90
34833;DHT22;55941;50.800;4.342;2023-05-14T12:03:18;22.50;99.90
34833;DHT22;55941;50.800;4.342;2023-05-14T12:05:58;23.20;99.90
34833;DHT22;55941;50.800;4.342;2023-05-14T12:08:29;23.70;99.90
34833;DHT22;55941;50.800;4.342;2023-05-14T12:10:57;23.90;99.90
34833;DHT22;55941;50.800;4.342;2023-05-14T12:13:30;24.20;99.90
34833;DHT22;55941;50.800;4.342;2023-05-14T12:15:58;24.80;99.90
34833;DHT22;55941;50.800;4.342;2023-05-14T12:18:28;25.30;99.90
34833;DHT22;55941;50.800;4.342;2023-05-14T12:20:54;25.70;99.90
34833;DHT22;55941;50.800;4.342;2023-05-14T12:23:29;26.20;98.90
34833;DHT22;55941;50.800;4.342;2023-05-14T12:25:59;26.70;97.30
34833;DHT22;55941;50.800;4.342;2023-05-14T12:28:25;27.10;96.40
34833;DHT22;55941;50.800;4.342;2023-05-14T12:30:56;27.20;96.50
34833;DHT22;55941;50.800;4.342;2023-05-14T12:33:22;27.40;96.10
34833;DHT22;55941;50.800;4.342;2023-05-14T12:35:49;27.60;95.10
34833;DHT22;55941;50.800;4.342;2023-05-14T12:38:15;27.50;95.40
34833;DHT22;55941;50.800;4.342;2023-05-14T12:40:41;27.60;94.60
34833;DHT22;55941;50.800;4.342;2023-05-14T12:43:07;28.00;94.70
34833;DHT22;55941;50.800;4.342;2023-05-14T12:45:33;28.60;92.90
34833;DHT22;55941;50.800;4.342;2023-05-14T12:48:00;28.70;92.30
34833;DHT22;55941;50.800;4.342;2023-05-14T12:50:26;28.20;92.50
34833;DHT22;55941;50.800;4.342;2023-05-14T12:52:52;28.30;92.20
34833;DHT22;55941;50.800;4.342;2023-05-14T12:55:18;28.50;91.70
34833;DHT22;55941;50.800;4.342;2023-05-14T12:57:43;28.40;92.50
34833;DHT22;55941;50.800;4.342;2023-05-14T13:00:10;27.70;92.20
34833;DHT22;55941;50.800;4.342;2023-05-14T13:02:37;27.90;92.30
34833;DHT22;55941;50.800;4.342;2023-05-14T13:05:06;28.20;91.90
34833;DHT22;55941;50.800;4.342;2023-05-14T13:07:33;28.40;92.20
34833;DHT22;55941;50.800;4.342;2023-05-14T13:09:58;28.80;91.30
34833;DHT22;55941;50.800;4.342;2023-05-14T13:12:25;29.30;90.40
34833;DHT22;55941;50.800;4.342;2023-05-14T13:14:51;29.70;88.20
34833;DHT22;55941;50.800;4.342;2023-05-14T13:17:17;29.80;88.10
34833;DHT22;55941;50.800;4.342;2023-05-14T13:19:43;29.40;86.70
34833;DHT22;55941;50.800;4.342;2023-05-14T13:22:09;29.30;88.30
34833;DHT22;55941;50.800;4.342;2023-05-14T13:24:36;29.70;86.50
34833;DHT22;55941;50.800;4.342;2023-05-14T13:27:02;29.80;85.80
34833;DHT22;55941;50.800;4.342;2023-05-14T13:29:28;29.70;85.50
34833;DHT22;55941;50.800;4.342;2023-05-14T13:31:55;29.10;87.40
34833;DHT22;55941;50.800;4.342;2023-05-14T13:34:21;28.80;87.90
34833;DHT22;55941;50.800;4.342;2023-05-14T13:36:47;29.70;87.70
34833;DHT22;55941;50.800;4.342;2023-05-14T13:39:14;29.80;84.60
34833;DHT22;55941;50.800;4.342;2023-05-14T13:41:40;29.70;83.90
34833;DHT22;55941;50.800;4.342;2023-05-14T13:44:07;28.80;85.80
34833;DHT22;55941;50.800;4.342;2023-05-14T13:46:33;28.40;87.50
34833;DHT22;55941;50.800;4.342;2023-05-14T13:49:00;28.50;87.90
34833;DHT22;55941;50.800;4.342;2023-05-14T13:51:26;29.30;86.90
34833;DHT22;55941;50.800;4.342;2023-05-14T13:53:51;29.30;83.60
34833;DHT22;55941;50.800;4.342;2023-05-14T13:56:17;28.90;83.40
34833;DHT22;55941;50.800;4.342;2023-05-14T13:58:43;28.50;84.60
34833;DHT22;55941;50.800;4.342;2023-05-14T14:01:09;28.80;84.30
34833;DHT22;55941;50.800;4.342;2023-05-14T14:03:35;29.50;82.90
34833;DHT22;55941;50.800;4.342;2023-05-14T14:06:01;29.00;81.30
34833;DHT22;55941;50.800;4.342;2023-05-14T14:08:27;28.20;83.50
34833;DHT22;55941;50.800;4.342;2023-05-14T14:10:53;28.30;84.80
34833;DHT22;55941;50.800;4.342;2023-05-14T14:13:19;28.90;85.30
34833;DHT22;55941;50.800;4.342;2023-05-14T14:15:47;29.00;84.80
34833;DHT22;55941;50.800;4.342;2023-05-14T14:18:13;29.30;84.40
34833;DHT22;55941;50.800;4.342;2023-05-14T14:20:39;29.20;83.10
34833;DHT22;55941;50.800;4.342;2023-05-14T14:23:05;28.70;84.60
34833;DHT22;55941;50.800;4.342;2023-05-14T14:25:31;28.20;83.80
34833;DHT22;55941;50.800;4.342;2023-05-14T14:27:57;27.60;84.90
34833;DHT22;55941;50.800;4.342;2023-05-14T14:30:23;27.50;84.80
34833;DHT22;55941;50.800;4.342;2023-05-14T14:32:50;27.70;83.70
34833;DHT22;55941;50.800;4.342;2023-05-14T14:35:17;27.70;84.80
34833;DHT22;55941;50.800;4.342;2023-05-14T14:37:43;27.50;85.70
34833;DHT22;55941;50.800;4.342;2023-05-14T14:40:14;27.50;84.60
34833;DHT22;55941;50.800;4.342;2023-05-14T14:42:41;27.80;84.40
34833;DHT22;55941;50.800;4.342;2023-05-14T14:45:08;26.80;84.40
34833;DHT22;55941;50.800;4.342;2023-05-14T14:47:34;26.80;86.00
34833;DHT22;55941;50.800;4.342;2023-05-14T14:50:00;27.00;85.40
34833;DHT22;55941;50.800;4.342;2023-05-14T14:52:27;26.90;85.70
34833;DHT22;55941;50.800;4.342;2023-05-14T14:54:54;27.00;84.20
34833;DHT22;55941;50.800;4.342;2023-05-14T14:57:21;26.60;86.10
34833;DHT22;55941;50.800;4.342;2023-05-14T14:59:47;26.20;87.20
34833;DHT22;55941;50.800;4.342;2023-05-14T15:02:13;25.80;87.50
34833;DHT22;55941;50.800;4.342;2023-05-14T15:04:39;25.60;89.30
34833;DHT22;55941;50.800;4.342;2023-05-14T15:07:06;25.90;89.10
34833;DHT22;55941;50.800;4.342;2023-05-14T15:09:32;26.20;88.40
34833;DHT22;55941;50.800;4.342;2023-05-14T15:11:58;26.20;88.90
34833;DHT22;55941;50.800;4.342;2023-05-14T15:14:24;25.60;89.90
34833;DHT22;55941;50.800;4.342;2023-05-14T15:16:51;25.60;90.30
34833;DHT22;55941;50.800;4.342;2023-05-14T15:19:19;25.50;90.20
34833;DHT22;55941;50.800;4.342;2023-05-14T15:21:45;25.30;89.50
34833;DHT22;55941;50.800;4.342;2023-05-14T15:24:11;24.50;90.10
34833;DHT22;55941;50.800;4.342;2023-05-14T15:26:40;24.20;90.30
34833;DHT22;55941;50.800;4.342;2023-05-14T15:29:06;24.20;91.10
34833;DHT22;55941;50.800;4.342;2023-05-14T15:31:32;24.00;92.70
34833;DHT22;55941;50.800;4.342;2023-05-14T15:33:58;24.00;92.60
34833;DHT22;55941;50.800;4.342;2023-05-14T15:36:25;24.00;92.90
34833;DHT22;55941;50.800;4.342;2023-05-14T15:38:51;24.00;92.70
34833;DHT22;55941;50.800;4.342;2023-05-14T15:41:17;23.50;93.30